sensor_id;sensor_type;location;lat;lon;timestamp;P1;durP1;ratioP1;P2;durP2;ratioP2
65715;SDS011;63484;52.054;8.518;2023-03-01T00:03:10;22.30;;;8.10;;
65715;SDS011;63484;52.054;8.518;2023-03-01T00:08:12;17.30;;;7.67;;
65715;SDS011;63484;52.054;8.518;2023-03-01T00:13:14;17.40;;;7.80;;
65715;SDS011;63484;52.054;8.518;2023-03-01T00:18:16;15.37;;;7.67;;
65715;SDS011;63484;52.054;8.518;2023-03-01T00:23:17;17.93;;;8.27;;
65715;SDS011;63484;52.054;8.518;2023-03-01T00:28:20;18.70;;;7.83;;
65715;SDS011;63484;52.054;8.518;2023-03-01T00:33:21;16.02;;;7.43;;
65715;SDS011;63484;52.054;8.518;2023-03-01T00:38:23;18.37;;;7.63;;
65715;SDS011;63484;52.054;8.518;2023-03-01T00:43:26;17.07;;;7.33;;
65715;SDS011;63484;52.054;8.518;2023-03-01T00:48:27;19.87;;;8.47;;
65715;SDS011;63484;52.054;8.518;2023-03-01T00:53:28;27.03;;;10.33;;
65715;SDS011;63484;52.054;8.518;2023-03-01T00:58:34;18.70;;;7.87;;
65715;SDS011;63484;52.054;8.518;2023-03-01T01:03:36;21.10;;;9.02;;
65715;SDS011;63484;52.054;8.518;2023-03-01T01:08:37;20.90;;;8.90;;
65715;SDS011;63484;52.054;8.518;2023-03-01T01:13:40;18.70;;;8.30;;
65715;SDS011;63484;52.054;8.518;2023-03-01T01:18:42;19.83;;;9.15;;
65715;SDS011;63484;52.054;8.518;2023-03-01T01:23:44;21.50;;;8.77;;
65715;SDS011;63484;52.054;8.518;2023-03-01T01:28:48;21.73;;;8.80;;
65715;SDS011;63484;52.054;8.518;2023-03-01T01:33:50;18.00;;;8.50;;
65715;SDS011;63484;52.054;8.518;2023-03-01T01:38:52;21.77;;;8.43;;
65715;SDS011;63484;52.054;8.518;2023-03-01T01:44:12;24.70;;;9.30;;
65715;SDS011;63484;52.054;8.518;2023-03-01T01:49:17;16.13;;;7.60;;
65715;SDS011;63484;52.054;8.518;2023-03-01T01:54:24;18.13;;;8.13;;
65715;SDS011;63484;52.054;8.518;2023-03-01T01:59:30;20.60;;;9.30;;
65715;SDS011;63484;52.054;8.518;2023-03-01T02:04:36;25.07;;;9.50;;
65715;SDS011;63484;52.054;8.518;2023-03-01T02:09:37;19.17;;;8.60;;
65715;SDS011;63484;52.054;8.518;2023-03-01T02:14:40;23.30;;;8.37;;
65715;SDS011;63484;52.054;8.518;2023-03-01T02:19:44;17.98;;;8.35;;
65715;SDS011;63484;52.054;8.518;2023-03-01T02:24:57;18.77;;;8.23;;
65715;SDS011;63484;52.054;8.518;2023-03-01T02:30:10;19.73;;;8.60;;
65715;SDS011;63484;52.054;8.518;2023-03-01T02:35:13;19.90;;;8.90;;
65715;SDS011;63484;52.054;8.518;2023-03-01T02:40:17;25.17;;;9.57;;
65715;SDS011;63484;52.054;8.518;2023-03-01T02:45:23;22.37;;;8.47;;
65715;SDS011;63484;52.054;8.518;2023-03-01T02:50:41;21.07;;;8.10;;
65715;SDS011;63484;52.054;8.518;2023-03-01T02:55:50;21.00;;;7.80;;
65715;SDS011;63484;52.054;8.518;2023-03-01T03:00:54;18.70;;;6.73;;
65715;SDS011;63484;52.054;8.518;2023-03-01T03:05:56;18.73;;;7.07;;
65715;SDS011;63484;52.054;8.518;2023-03-01T03:10:58;16.60;;;6.80;;
65715;SDS011;63484;52.054;8.518;2023-03-01T03:16:01;15.43;;;6.90;;
65715;SDS011;63484;52.054;8.518;2023-03-01T03:21:06;18.27;;;6.93;;
65715;SDS011;63484;52.054;8.518;2023-03-01T03:26:10;16.03;;;7.17;;
65715;SDS011;63484;52.054;8.518;2023-03-01T03:31:16;19.03;;;7.90;;
65715;SDS011;63484;52.054;8.518;2023-03-01T03:36:18;14.80;;;7.67;;
65715;SDS011;63484;52.054;8.518;2023-03-01T03:41:21;17.23;;;7.87;;
65715;SDS011;63484;52.054;8.518;2023-03-01T03:46:24;16.57;;;7.37;;
65715;SDS011;63484;52.054;8.518;2023-03-01T03:51:26;16.13;;;8.02;;
65715;SDS011;63484;52.054;8.518;2023-03-01T03:56:27;15.27;;;6.60;;
65715;SDS011;63484;52.054;8.518;2023-03-01T04:01:30;18.47;;;6.47;;
65715;SDS011;63484;52.054;8.518;2023-03-01T04:06:31;17.07;;;7.33;;
65715;SDS011;63484;52.054;8.518;2023-03-01T04:11:32;13.97;;;6.60;;
65715;SDS011;63484;52.054;8.518;2023-03-01T04:16:36;20.40;;;7.43;;
65715;SDS011;63484;52.054;8.518;2023-03-01T04:21:37;14.33;;;6.53;;
65715;SDS011;63484;52.054;8.518;2023-03-01T04:26:38;15.23;;;6.63;;
65715;SDS011;63484;52.054;8.518;2023-03-01T04:31:41;14.87;;;6.83;;
65715;SDS011;63484;52.054;8.518;2023-03-01T04:36:43;14.70;;;6.93;;
65715;SDS011;63484;52.054;8.518;2023-03-01T04:41:44;15.10;;;6.77;;
65715;SDS011;63484;52.054;8.518;2023-03-01T04:46:49;15.43;;;6.90;;
65715;SDS011;63484;52.054;8.518;2023-03-01T04:51:50;15.30;;;7.10;;
65715;SDS011;63484;52.054;8.518;2023-03-01T04:56:52;18.00;;;7.40;;
65715;SDS011;63484;52.054;8.518;2023-03-01T05:01:55;14.87;;;7.93;;
65715;SDS011;63484;52.054;8.518;2023-03-01T05:06:57;20.27;;;8.63;;
65715;SDS011;63484;52.054;8.518;2023-03-01T05:11:58;21.07;;;8.63;;
65715;SDS011;63484;52.054;8.518;2023-03-01T05:17:01;20.50;;;9.43;;
65715;SDS011;63484;52.054;8.518;2023-03-01T05:22:04;16.80;;;8.23;;
65715;SDS011;63484;52.054;8.518;2023-03-01T05:27:05;18.80;;;8.53;;
65715;SDS011;63484;52.054;8.518;2023-03-01T05:32:08;17.63;;;8.13;;
65715;SDS011;63484;52.054;8.518;2023-03-01T05:37:14;22.80;;;8.57;;
65715;SDS011;63484;52.054;8.518;2023-03-01T05:42:16;15.57;;;7.30;;
65715;SDS011;63484;52.054;8.518;2023-03-01T05:47:19;18.13;;;8.27;;
65715;SDS011;63484;52.054;8.518;2023-03-01T05:52:21;18.42;;;7.90;;
65715;SDS011;63484;52.054;8.518;2023-03-01T05:57:22;16.33;;;8.20;;
65715;SDS011;63484;52.054;8.518;2023-03-01T06:02:25;24.30;;;8.47;;
65715;SDS011;63484;52.054;8.518;2023-03-01T06:07:27;16.65;;;8.63;;
65715;SDS011;63484;52.054;8.518;2023-03-01T06:12:30;17.23;;;7.87;;
65715;SDS011;63484;52.054;8.518;2023-03-01T06:17:33;17.45;;;8.45;;
65715;SDS011;63484;52.054;8.518;2023-03-01T06:22:37;19.87;;;9.07;;
65715;SDS011;63484;52.054;8.518;2023-03-01T06:27:39;26.03;;;10.87;;
65715;SDS011;63484;52.054;8.518;2023-03-01T06:32:42;27.57;;;11.73;;
65715;SDS011;63484;52.054;8.518;2023-03-01T06:37:45;27.95;;;11.13;;
65715;SDS011;63484;52.054;8.518;2023-03-01T06:42:57;25.73;;;11.00;;
65715;SDS011;63484;52.054;8.518;2023-03-01T06:48:04;23.87;;;11.20;;
65715;SDS011;63484;52.054;8.518;2023-03-01T06:53:06;27.77;;;11.93;;
65715;SDS011;63484;52.054;8.518;2023-03-01T06:58:08;26.37;;;11.30;;
65715;SDS011;63484;52.054;8.518;2023-03-01T07:03:11;22.47;;;9.83;;
65715;SDS011;63484;52.054;8.518;2023-03-01T07:08:12;21.53;;;9.87;;
65715;SDS011;63484;52.054;8.518;2023-03-01T07:13:14;19.70;;;10.27;;
65715;SDS011;63484;52.054;8.518;2023-03-01T07:18:16;19.33;;;10.87;;
65715;SDS011;63484;52.054;8.518;2023-03-01T07:23:18;21.70;;;10.50;;
65715;SDS011;63484;52.054;8.518;2023-03-01T07:28:19;22.67;;;9.93;;
65715;SDS011;63484;52.054;8.518;2023-03-01T07:33:24;21.10;;;9.52;;
65715;SDS011;63484;52.054;8.518;2023-03-01T07:38:26;17.17;;;9.80;;
65715;SDS011;63484;52.054;8.518;2023-03-01T07:43:29;17.65;;;9.93;;
65715;SDS011;63484;52.054;8.518;2023-03-01T07:48:32;16.35;;;9.52;;
65715;SDS011;63484;52.054;8.518;2023-03-01T07:53:34;17.67;;;10.27;;
65715;SDS011;63484;52.054;8.518;2023-03-01T07:58:36;16.45;;;9.73;;
65715;SDS011;63484;52.054;8.518;2023-03-01T08:03:40;16.67;;;10.23;;
65715;SDS011;63484;52.054;8.518;2023-03-01T08:08:43;20.80;;;10.18;;
65715;SDS011;63484;52.054;8.518;2023-03-01T08:13:46;14.82;;;9.25;;
65715;SDS011;63484;52.054;8.518;2023-03-01T08:18:50;12.60;;;9.07;;
65715;SDS011;63484;52.054;8.518;2023-03-01T08:23:51;14.57;;;9.00;;
65715;SDS011;63484;52.054;8.518;2023-03-01T08:28:53;11.55;;;8.50;;
65715;SDS011;63484;52.054;8.518;2023-03-01T08:33:56;10.52;;;8.43;;
65715;SDS011;63484;52.054;8.518;2023-03-01T08:39:00;15.18;;;8.18;;
65715;SDS011;63484;52.054;8.518;2023-03-01T08:44:02;13.50;;;9.98;;
65715;SDS011;63484;52.054;8.518;2023-03-01T08:49:05;15.15;;;9.73;;
65715;SDS011;63484;52.054;8.518;2023-03-01T08:54:09;18.30;;;11.30;;
65715;SDS011;63484;52.054;8.518;2023-03-01T08:59:14;17.40;;;10.93;;
65715;SDS011;63484;52.054;8.518;2023-03-01T09:04:18;18.45;;;9.70;;
65715;SDS011;63484;52.054;8.518;2023-03-01T09:09:19;18.85;;;10.10;;
65715;SDS011;63484;52.054;8.518;2023-03-01T09:14:21;15.20;;;8.48;;
65715;SDS011;63484;52.054;8.518;2023-03-01T09:19:24;16.55;;;7.75;;
65715;SDS011;63484;52.054;8.518;2023-03-01T09:24:25;13.68;;;7.70;;
65715;SDS011;63484;52.054;8.518;2023-03-01T09:29:26;14.55;;;7.90;;
65715;SDS011;63484;52.054;8.518;2023-03-01T09:34:29;14.15;;;6.70;;
65715;SDS011;63484;52.054;8.518;2023-03-01T09:39:51;14.25;;;7.30;;
65715;SDS011;63484;52.054;8.518;2023-03-01T09:44:54;15.02;;;7.50;;
65715;SDS011;63484;52.054;8.518;2023-03-01T09:50:05;16.52;;;7.60;;
65715;SDS011;63484;52.054;8.518;2023-03-01T09:55:12;16.48;;;8.38;;
65715;SDS011;63484;52.054;8.518;2023-03-01T10:00:28;14.20;;;7.13;;
65715;SDS011;63484;52.054;8.518;2023-03-01T10:05:38;14.05;;;6.55;;
65715;SDS011;63484;52.054;8.518;2023-03-01T10:10:48;12.43;;;5.28;;
65715;SDS011;63484;52.054;8.518;2023-03-01T10:15:51;14.38;;;6.63;;
65715;SDS011;63484;52.054;8.518;2023-03-01T10:20:58;13.50;;;5.65;;
65715;SDS011;63484;52.054;8.518;2023-03-01T10:26:04;13.27;;;6.18;;
65715;SDS011;63484;52.054;8.518;2023-03-01T10:31:13;13.07;;;5.90;;
65715;SDS011;63484;52.054;8.518;2023-03-01T10:36:20;12.25;;;5.93;;
65715;SDS011;63484;52.054;8.518;2023-03-01T10:41:22;14.93;;;6.13;;
65715;SDS011;63484;52.054;8.518;2023-03-01T10:46:25;11.33;;;5.30;;
65715;SDS011;63484;52.054;8.518;2023-03-01T10:51:29;13.45;;;5.75;;
65715;SDS011;63484;52.054;8.518;2023-03-01T10:56:31;11.95;;;5.30;;
65715;SDS011;63484;52.054;8.518;2023-03-01T11:01:49;12.75;;;5.13;;
65715;SDS011;63484;52.054;8.518;2023-03-01T11:07:05;11.45;;;5.15;;
65715;SDS011;63484;52.054;8.518;2023-03-01T11:12:12;13.27;;;5.30;;
65715;SDS011;63484;52.054;8.518;2023-03-01T11:17:17;11.73;;;5.15;;
65715;SDS011;63484;52.054;8.518;2023-03-01T11:22:23;11.38;;;5.40;;
65715;SDS011;63484;52.054;8.518;2023-03-01T11:27:25;11.77;;;4.53;;
65715;SDS011;63484;52.054;8.518;2023-03-01T11:32:31;11.35;;;5.35;;
65715;SDS011;63484;52.054;8.518;2023-03-01T11:37:40;9.77;;;4.82;;
65715;SDS011;63484;52.054;8.518;2023-03-01T11:42:47;9.48;;;4.47;;
65715;SDS011;63484;52.054;8.518;2023-03-01T11:47:59;9.68;;;4.65;;
65715;SDS011;63484;52.054;8.518;2023-03-01T11:53:21;9.73;;;4.07;;
65715;SDS011;63484;52.054;8.518;2023-03-01T12:04:20;11.90;;;4.68;;
65715;SDS011;63484;52.054;8.518;2023-03-01T12:09:39;9.98;;;4.50;;
65715;SDS011;63484;52.054;8.518;2023-03-01T12:14:52;9.48;;;4.00;;
65715;SDS011;63484;52.054;8.518;2023-03-01T12:25:20;9.73;;;4.85;;
65715;SDS011;63484;52.054;8.518;2023-03-01T12:30:31;8.18;;;4.13;;
65715;SDS011;63484;52.054;8.518;2023-03-01T12:41:13;10.13;;;4.20;;
65715;SDS011;63484;52.054;8.518;2023-03-01T12:46:45;7.63;;;3.75;;
65715;SDS011;63484;52.054;8.518;2023-03-01T12:51:55;8.15;;;4.28;;
65715;SDS011;63484;52.054;8.518;2023-03-01T12:57:05;7.50;;;3.92;;
65715;SDS011;63484;52.054;8.518;2023-03-01T13:02:13;6.80;;;3.80;;
65715;SDS011;63484;52.054;8.518;2023-03-01T13:07:23;9.75;;;4.03;;
65715;SDS011;63484;52.054;8.518;2023-03-01T13:12:43;7.15;;;3.50;;
65715;SDS011;63484;52.054;8.518;2023-03-01T13:17:46;13.38;;;3.80;;
65715;SDS011;63484;52.054;8.518;2023-03-01T13:22:48;8.18;;;4.25;;
65715;SDS011;63484;52.054;8.518;2023-03-01T13:33:42;13.30;;;4.90;;
65715;SDS011;63484;52.054;8.518;2023-03-01T13:38:46;14.20;;;5.05;;
65715;SDS011;63484;52.054;8.518;2023-03-01T13:43:50;12.83;;;5.27;;
65715;SDS011;63484;52.054;8.518;2023-03-01T13:48:52;12.30;;;5.45;;
65715;SDS011;63484;52.054;8.518;2023-03-01T13:53:56;11.25;;;5.32;;
65715;SDS011;63484;52.054;8.518;2023-03-01T13:59:01;9.63;;;4.63;;
65715;SDS011;63484;52.054;8.518;2023-03-01T14:04:17;11.07;;;4.93;;
65715;SDS011;63484;52.054;8.518;2023-03-01T14:09:22;7.63;;;4.00;;
65715;SDS011;63484;52.054;8.518;2023-03-01T14:14:33;9.15;;;3.90;;
65715;SDS011;63484;52.054;8.518;2023-03-01T14:19:41;6.00;;;2.75;;
65715;SDS011;63484;52.054;8.518;2023-03-01T14:24:46;6.13;;;2.83;;
65715;SDS011;63484;52.054;8.518;2023-03-01T14:35:00;8.05;;;3.00;;
65715;SDS011;63484;52.054;8.518;2023-03-01T14:40:03;9.77;;;4.68;;
65715;SDS011;63484;52.054;8.518;2023-03-01T14:50:17;9.25;;;4.25;;
65715;SDS011;63484;52.054;8.518;2023-03-01T14:55:25;10.45;;;4.78;;
65715;SDS011;63484;52.054;8.518;2023-03-01T15:00:31;9.93;;;4.63;;
65715;SDS011;63484;52.054;8.518;2023-03-01T15:05:34;8.30;;;4.50;;
65715;SDS011;63484;52.054;8.518;2023-03-01T15:10:36;8.25;;;4.07;;
65715;SDS011;63484;52.054;8.518;2023-03-01T15:15:41;10.32;;;4.10;;
65715;SDS011;63484;52.054;8.518;2023-03-01T15:20:46;8.80;;;3.70;;
65715;SDS011;63484;52.054;8.518;2023-03-01T15:25:49;9.30;;;3.70;;
65715;SDS011;63484;52.054;8.518;2023-03-01T15:30:58;7.78;;;3.28;;
65715;SDS011;63484;52.054;8.518;2023-03-01T15:36:03;8.32;;;3.45;;
65715;SDS011;63484;52.054;8.518;2023-03-01T15:41:27;10.15;;;2.97;;
65715;SDS011;63484;52.054;8.518;2023-03-01T15:46:32;6.95;;;3.20;;
65715;SDS011;63484;52.054;8.518;2023-03-01T15:51:35;5.13;;;2.63;;
65715;SDS011;63484;52.054;8.518;2023-03-01T15:56:39;8.10;;;3.40;;
65715;SDS011;63484;52.054;8.518;2023-03-01T16:01:40;5.80;;;2.58;;
65715;SDS011;63484;52.054;8.518;2023-03-01T16:06:42;6.47;;;3.00;;
65715;SDS011;63484;52.054;8.518;2023-03-01T16:11:45;6.28;;;2.90;;
65715;SDS011;63484;52.054;8.518;2023-03-01T16:16:46;4.68;;;2.53;;
65715;SDS011;63484;52.054;8.518;2023-03-01T16:21:49;4.85;;;2.55;;
65715;SDS011;63484;52.054;8.518;2023-03-01T16:26:51;6.13;;;2.50;;
65715;SDS011;63484;52.054;8.518;2023-03-01T16:31:53;4.82;;;2.63;;
65715;SDS011;63484;52.054;8.518;2023-03-01T16:36:54;5.95;;;3.00;;
65715;SDS011;63484;52.054;8.518;2023-03-01T16:41:57;8.55;;;3.50;;
65715;SDS011;63484;52.054;8.518;2023-03-01T16:47:01;10.38;;;3.60;;
65715;SDS011;63484;52.054;8.518;2023-03-01T16:52:02;6.10;;;2.95;;
65715;SDS011;63484;52.054;8.518;2023-03-01T16:57:05;6.68;;;3.10;;
65715;SDS011;63484;52.054;8.518;2023-03-01T17:02:08;8.60;;;3.10;;
65715;SDS011;63484;52.054;8.518;2023-03-01T17:07:12;8.30;;;3.08;;
65715;SDS011;63484;52.054;8.518;2023-03-01T17:12:15;11.27;;;3.33;;
65715;SDS011;63484;52.054;8.518;2023-03-01T17:17:16;5.93;;;2.65;;
65715;SDS011;63484;52.054;8.518;2023-03-01T17:22:18;7.60;;;3.60;;
65715;SDS011;63484;52.054;8.518;2023-03-01T17:27:21;8.63;;;3.05;;
65715;SDS011;63484;52.054;8.518;2023-03-01T17:32:22;7.45;;;3.25;;
65715;SDS011;63484;52.054;8.518;2023-03-01T17:37:24;7.25;;;3.38;;
65715;SDS011;63484;52.054;8.518;2023-03-01T17:42:27;6.78;;;3.35;;
65715;SDS011;63484;52.054;8.518;2023-03-01T17:47:28;11.00;;;3.55;;
65715;SDS011;63484;52.054;8.518;2023-03-01T17:52:29;10.60;;;3.53;;
65715;SDS011;63484;52.054;8.518;2023-03-01T17:57:32;15.65;;;5.78;;
65715;SDS011;63484;52.054;8.518;2023-03-01T18:02:34;14.30;;;5.93;;
65715;SDS011;63484;52.054;8.518;2023-03-01T18:07:35;6.03;;;3.45;;
65715;SDS011;63484;52.054;8.518;2023-03-01T18:12:38;7.28;;;4.00;;
65715;SDS011;63484;52.054;8.518;2023-03-01T18:17:40;9.82;;;3.63;;
65715;SDS011;63484;52.054;8.518;2023-03-01T18:22:41;10.85;;;4.78;;
65715;SDS011;63484;52.054;8.518;2023-03-01T18:27:44;16.13;;;7.28;;
65715;SDS011;63484;52.054;8.518;2023-03-01T18:32:46;18.08;;;8.82;;
65715;SDS011;63484;52.054;8.518;2023-03-01T18:37:47;19.17;;;8.38;;
65715;SDS011;63484;52.054;8.518;2023-03-01T18:42:51;12.43;;;5.50;;
65715;SDS011;63484;52.054;8.518;2023-03-01T18:47:52;16.35;;;6.57;;
65715;SDS011;63484;52.054;8.518;2023-03-01T18:52:53;16.08;;;6.28;;
65715;SDS011;63484;52.054;8.518;2023-03-01T18:57:56;12.25;;;5.93;;
65715;SDS011;63484;52.054;8.518;2023-03-01T19:02:58;8.50;;;3.85;;
65715;SDS011;63484;52.054;8.518;2023-03-01T19:08:00;10.03;;;4.63;;
65715;SDS011;63484;52.054;8.518;2023-03-01T19:13:02;8.52;;;3.95;;
65715;SDS011;63484;52.054;8.518;2023-03-01T19:18:05;10.47;;;3.60;;
65715;SDS011;63484;52.054;8.518;2023-03-01T19:23:24;10.87;;;3.53;;
65715;SDS011;63484;52.054;8.518;2023-03-01T19:28:27;9.95;;;4.25;;
65715;SDS011;63484;52.054;8.518;2023-03-01T19:33:29;11.60;;;4.70;;
65715;SDS011;63484;52.054;8.518;2023-03-01T19:38:31;16.45;;;5.97;;
65715;SDS011;63484;52.054;8.518;2023-03-01T19:43:34;12.53;;;5.70;;
65715;SDS011;63484;52.054;8.518;2023-03-01T19:48:36;9.47;;;4.10;;
65715;SDS011;63484;52.054;8.518;2023-03-01T19:53:39;11.02;;;4.78;;
65715;SDS011;63484;52.054;8.518;2023-03-01T19:58:43;9.73;;;3.95;;
65715;SDS011;63484;52.054;8.518;2023-03-01T20:03:46;10.27;;;4.30;;
65715;SDS011;63484;52.054;8.518;2023-03-01T20:08:48;8.57;;;3.63;;
65715;SDS011;63484;52.054;8.518;2023-03-01T20:13:51;9.47;;;4.30;;
65715;SDS011;63484;52.054;8.518;2023-03-01T20:18:52;14.50;;;4.53;;
65715;SDS011;63484;52.054;8.518;2023-03-01T20:23:54;11.43;;;4.70;;
65715;SDS011;63484;52.054;8.518;2023-03-01T20:28:56;9.93;;;4.93;;
65715;SDS011;63484;52.054;8.518;2023-03-01T20:33:58;13.43;;;5.47;;
65715;SDS011;63484;52.054;8.518;2023-03-01T20:39:00;13.23;;;5.77;;
65715;SDS011;63484;52.054;8.518;2023-03-01T20:44:02;10.07;;;4.87;;
65715;SDS011;63484;52.054;8.518;2023-03-01T20:49:05;11.13;;;5.20;;
65715;SDS011;63484;52.054;8.518;2023-03-01T20:54:07;8.33;;;4.40;;
65715;SDS011;63484;52.054;8.518;2023-03-01T20:59:11;8.43;;;4.17;;
65715;SDS011;63484;52.054;8.518;2023-03-01T21:04:12;9.20;;;4.43;;
65715;SDS011;63484;52.054;8.518;2023-03-01T21:14:19;11.77;;;5.10;;
65715;SDS011;63484;52.054;8.518;2023-03-01T21:19:21;11.45;;;4.82;;
65715;SDS011;63484;52.054;8.518;2023-03-01T21:24:22;11.73;;;4.50;;
65715;SDS011;63484;52.054;8.518;2023-03-01T21:29:25;9.17;;;4.00;;
65715;SDS011;63484;52.054;8.518;2023-03-01T21:34:27;10.73;;;4.07;;
65715;SDS011;63484;52.054;8.518;2023-03-01T21:39:28;9.40;;;4.70;;
65715;SDS011;63484;52.054;8.518;2023-03-01T21:44:31;10.37;;;4.20;;
65715;SDS011;63484;52.054;8.518;2023-03-01T21:49:33;10.57;;;5.00;;
65715;SDS011;63484;52.054;8.518;2023-03-01T21:54:34;16.03;;;6.43;;
65715;SDS011;63484;52.054;8.518;2023-03-01T21:59:37;12.57;;;6.20;;
65715;SDS011;63484;52.054;8.518;2023-03-01T22:04:40;13.27;;;6.60;;
65715;SDS011;63484;52.054;8.518;2023-03-01T22:09:41;12.20;;;5.77;;
65715;SDS011;63484;52.054;8.518;2023-03-01T22:14:44;13.30;;;5.50;;
65715;SDS011;63484;52.054;8.518;2023-03-01T22:19:45;11.77;;;4.70;;
65715;SDS011;63484;52.054;8.518;2023-03-01T22:24:46;10.17;;;5.03;;
65715;SDS011;63484;52.054;8.518;2023-03-01T22:29:49;10.83;;;4.67;;
65715;SDS011;63484;52.054;8.518;2023-03-01T22:34:51;9.57;;;4.90;;
65715;SDS011;63484;52.054;8.518;2023-03-01T22:39:52;12.97;;;4.83;;
65715;SDS011;63484;52.054;8.518;2023-03-01T22:44:55;12.73;;;5.10;;
65715;SDS011;63484;52.054;8.518;2023-03-01T22:49:57;11.95;;;4.95;;
65715;SDS011;63484;52.054;8.518;2023-03-01T22:54:58;11.00;;;5.17;;
65715;SDS011;63484;52.054;8.518;2023-03-01T23:00:01;10.80;;;5.30;;
65715;SDS011;63484;52.054;8.518;2023-03-01T23:05:04;13.20;;;5.83;;
65715;SDS011;63484;52.054;8.518;2023-03-01T23:10:06;11.77;;;5.33;;
65715;SDS011;63484;52.054;8.518;2023-03-01T23:15:12;12.83;;;5.60;;
65715;SDS011;63484;52.054;8.518;2023-03-01T23:20:14;13.98;;;5.97;;
65715;SDS011;63484;52.054;8.518;2023-03-01T23:25:16;12.30;;;5.60;;
65715;SDS011;63484;52.054;8.518;2023-03-01T23:30:18;11.23;;;4.93;;
65715;SDS011;63484;52.054;8.518;2023-03-01T23:35:20;12.25;;;5.43;;
65715;SDS011;63484;52.054;8.518;2023-03-01T23:40:21;12.40;;;5.57;;
65715;SDS011;63484;52.054;8.518;2023-03-01T23:45:24;16.70;;;7.67;;
65715;SDS011;63484;52.054;8.518;2023-03-01T23:50:26;13.83;;;5.83;;
65715;SDS011;63484;52.054;8.518;2023-03-01T23:55:27;15.83;;;5.83;;
